Time;durP1;ratioP1;P1;durP2;ratioP2;P2;SDS_P1;SDS_P2;PMS_P1;PMS_P2;Temp;Humidity;BMP_temperature;BMP_pressure;BME280_temperature;BME280_humidity;BME280_pressure;Samples;Min_cycle;Max_cycle;Signal;HPM_P1;HPM_P2
2023/03/24 00:01:44;;;;;;;3.33;1.30;;;10.70;99.90;;;;;;5059385;28;25111;-78
2023/03/24 00:04:13;;;;;;;5.80;1.38;;;10.60;99.90;;;;;;5077314;28;25096;-79
2023/03/24 00:06:40;;;;;;;3.10;1.20;;;10.60;99.90;;;;;;5077293;28;25062;-79
2023/03/24 00:09:07;;;;;;;2.85;1.67;;;10.50;99.90;;;;;;5076957;28;25152;-79
2023/03/24 00:11:35;;;;;;;6.47;1.95;;;10.50;99.90;;;;;;5076889;28;25112;-79
2023/03/24 00:14:03;;;;;;;3.38;0.90;;;10.40;99.90;;;;;;5059144;28;25064;-79
2023/03/24 00:16:33;;;;;;;9.40;1.73;;;10.40;99.90;;;;;;5059113;28;25138;-79
2023/03/24 00:19:01;;;;;;;4.60;1.40;;;10.40;99.90;;;;;;5077615;28;25104;-79
2023/03/24 00:21:28;;;;;;;8.70;2.03;;;10.40;99.90;;;;;;5076829;28;25076;-79
2023/03/24 00:23:57;;;;;;;5.03;1.50;;;10.40;99.90;;;;;;5076715;28;25117;-79
2023/03/24 00:26:24;;;;;;;3.72;1.38;;;10.40;99.90;;;;;;5058911;28;25078;-79
2023/03/24 00:28:52;;;;;;;3.50;1.15;;;10.40;99.90;;;;;;5058907;28;25144;-79
2023/03/24 00:31:20;;;;;;;8.90;1.88;;;10.40;99.90;;;;;;5077030;28;25076;-79
2023/03/24 00:33:49;;;;;;;4.85;1.60;;;10.40;99.90;;;;;;5076577;28;25138;-79
2023/03/24 00:36:19;;;;;;;5.88;1.60;;;10.40;99.90;;;;;;5076859;28;25095;-79
2023/03/24 00:38:47;;;;;;;4.82;1.65;;;10.40;99.90;;;;;;5076545;28;25052;-79
2023/03/24 00:41:18;;;;;;;9.40;2.33;;;10.40;99.90;;;;;;5076582;28;25066;-79
2023/03/24 00:43:47;;;;;;;4.68;1.50;;;10.30;99.90;;;;;;5076722;28;25136;-79
2023/03/24 00:46:26;;;;;;;3.80;1.48;;;10.30;99.90;;;;;;5076018;28;25101;-79
2023/03/24 00:49:04;;;;;;;6.25;1.42;;;10.40;99.90;;;;;;5057869;28;25137;-79
2023/03/24 00:51:41;;;;;;;6.20;1.75;;;10.30;99.90;;;;;;5076535;28;25161;-79
2023/03/24 00:54:11;;;;;;;6.70;1.55;;;10.40;99.90;;;;;;5076360;28;25055;-79
2023/03/24 00:56:39;;;;;;;3.40;1.27;;;10.30;99.90;;;;;;5076386;28;25072;-80
2023/03/24 00:59:08;;;;;;;2.40;1.23;;;10.30;99.90;;;;;;5076321;28;25113;-79
2023/03/24 01:01:36;;;;;;;2.20;1.20;;;10.30;99.90;;;;;;5076716;28;25067;-79
2023/03/24 01:04:04;;;;;;;3.28;1.60;;;10.40;99.90;;;;;;5076271;28;25061;-79
2023/03/24 01:06:35;;;;;;;4.30;1.83;;;10.40;99.90;;;;;;5075566;28;25053;-79
2023/03/24 01:09:04;;;;;;;4.22;1.42;;;10.40;99.90;;;;;;5076191;28;25075;-79
2023/03/24 01:11:37;;;;;;;2.80;1.40;;;10.40;99.90;;;;;;5076276;28;25058;-79
2023/03/24 01:14:04;;;;;;;4.20;1.15;;;10.40;99.90;;;;;;5076105;28;25064;-80
2023/03/24 01:16:31;;;;;;;2.30;1.25;;;10.40;99.90;;;;;;5057691;28;25069;-79
2023/03/24 01:18:59;;;;;;;4.78;1.55;;;10.40;99.90;;;;;;5076416;28;25094;-79
2023/03/24 01:21:27;;;;;;;4.28;1.35;;;10.40;99.90;;;;;;5057689;28;25069;-79
2023/03/24 01:23:54;;;;;;;3.20;1.20;;;10.40;99.90;;;;;;5075191;28;25073;-79
2023/03/24 01:26:21;;;;;;;3.00;1.70;;;10.50;99.90;;;;;;5076076;28;25113;-80
2023/03/24 01:28:49;;;;;;;2.95;1.30;;;10.50;99.90;;;;;;5057603;28;25075;-79
2023/03/24 01:31:16;;;;;;;2.80;1.48;;;10.50;99.90;;;;;;5076183;28;25125;-80
2023/03/24 01:33:44;;;;;;;3.28;1.35;;;10.50;99.90;;;;;;5057472;28;25059;-79
2023/03/24 01:36:12;;;;;;;3.30;1.50;;;10.50;99.90;;;;;;5058299;28;25099;-80
2023/03/24 01:38:39;;;;;;;4.70;1.77;;;10.50;99.90;;;;;;5076174;28;25136;-79
2023/03/24 01:41:07;;;;;;;3.55;1.48;;;10.50;99.90;;;;;;5076152;28;25138;-79
2023/03/24 01:43:35;;;;;;;3.33;1.63;;;10.50;99.90;;;;;;5075872;28;25147;-79
2023/03/24 01:46:19;;;;;;;2.90;1.52;;;10.50;99.90;;;;;;5076297;28;25081;-79
2023/03/24 01:49:05;;;;;;;2.50;1.30;;;10.50;99.90;;;;;;5075821;28;25058;-79
2023/03/24 01:51:43;;;;;;;3.92;1.60;;;10.50;99.90;;;;;;5067701;28;25066;-79
2023/03/24 01:54:24;;;;;;;3.05;1.50;;;10.50;99.90;;;;;;5058228;28;25103;-79
2023/03/24 01:57:05;;;;;;;3.78;1.50;;;10.50;99.90;;;;;;5076220;28;25056;-79
2023/03/24 01:59:37;;;;;;;3.50;1.80;;;10.50;99.90;;;;;;5075961;28;25074;-79
2023/03/24 02:02:06;;;;;;;3.88;1.40;;;10.60;99.90;;;;;;5079352;28;25064;-79
2023/03/24 02:04:42;;;;;;;2.03;1.23;;;10.60;99.90;;;;;;5061599;28;25057;-79
2023/03/24 02:07:32;;;;;;;3.13;1.20;;;10.60;99.90;;;;;;5079495;28;25058;-79
2023/03/24 02:10:04;;;;;;;3.45;1.38;;;10.70;99.90;;;;;;5079262;28;25123;-79
2023/03/24 02:12:32;;;;;;;4.50;1.08;;;10.70;99.90;;;;;;5079499;28;25096;-79
2023/03/24 02:15:01;;;;;;;3.13;1.30;;;10.70;99.90;;;;;;5061390;28;25146;-79
2023/03/24 02:17:55;;;;;;;2.42;1.20;;;10.70;99.90;;;;;;5061452;28;25117;-79
2023/03/24 02:20:39;;;;;;;3.10;1.65;;;10.70;99.90;;;;;;5079498;28;25093;-79
2023/03/24 02:23:34;;;;;;;4.18;2.10;;;10.70;99.90;;;;;;5079169;28;25077;-79
2023/03/24 02:26:20;;;;;;;4.38;1.90;;;10.80;99.90;;;;;;5079218;28;25080;-79
2023/03/24 02:29:05;;;;;;;4.50;1.42;;;10.80;99.90;;;;;;5061165;28;25061;-79
2023/03/24 02:31:54;;;;;;;6.75;1.80;;;10.80;99.90;;;;;;5079311;28;25101;-79
2023/03/24 02:34:34;;;;;;;5.35;1.52;;;10.90;99.90;;;;;;5079071;28;25056;-79
2023/03/24 02:37:26;;;;;;;4.15;1.88;;;10.90;99.90;;;;;;5079042;28;25087;-79
2023/03/24 02:40:30;;;;;;;3.47;1.58;;;10.90;99.90;;;;;;5078657;28;25070;-79
2023/03/24 02:43:11;;;;;;;4.20;1.25;;;10.90;99.90;;;;;;5078548;28;25075;-79
2023/03/24 02:46:12;;;;;;;5.25;1.52;;;10.90;99.90;;;;;;5078895;28;25059;-79
2023/03/24 02:48:57;;;;;;;3.17;1.45;;;10.90;99.90;;;;;;5078913;28;25099;-79
2023/03/24 02:51:58;;;;;;;5.18;2.55;;;10.90;99.90;;;;;;5078438;28;25060;-79
2023/03/24 02:54:43;;;;;;;5.93;2.00;;;10.90;99.90;;;;;;5060652;28;25102;-79
2023/03/24 02:57:38;;;;;;;3.70;1.50;;;10.90;99.90;;;;;;5078647;28;25119;-79
2023/03/24 03:00:37;;;;;;;3.40;1.60;;;10.90;99.90;;;;;;5078404;28;25087;-80
2023/03/24 03:03:17;;;;;;;4.20;2.60;;;10.90;99.90;;;;;;5078207;28;25057;-79
2023/03/24 03:06:21;;;;;;;3.38;2.10;;;10.90;99.90;;;;;;5078410;28;25104;-79
2023/03/24 03:08:49;;;;;;;3.25;1.92;;;10.80;99.90;;;;;;5078483;28;25063;-80
2023/03/24 03:11:17;;;;;;;3.53;2.10;;;10.80;99.90;;;;;;5078500;28;25052;-80
2023/03/24 03:13:58;;;;;;;3.75;1.75;;;10.80;99.90;;;;;;5077764;28;25080;-79
2023/03/24 03:16:58;;;;;;;3.83;2.40;;;10.80;99.90;;;;;;5078507;28;25066;-79
2023/03/24 03:19:49;;;;;;;6.85;2.67;;;10.80;99.90;;;;;;5073908;28;25137;-79
2023/03/24 03:22:23;;;;;;;5.13;2.85;;;10.70;99.90;;;;;;5077866;28;25078;-79
2023/03/24 03:24:54;;;;;;;5.38;2.75;;;10.70;99.90;;;;;;5060149;28;25065;-79
2023/03/24 03:27:37;;;;;;;5.28;2.63;;;10.70;99.90;;;;;;5077995;28;25085;-79
2023/03/24 03:30:42;;;;;;;6.50;2.83;;;10.70;99.90;;;;;;5077776;28;25067;-79
2023/03/24 03:33:23;;;;;;;5.00;3.28;;;10.70;99.90;;;;;;5055234;28;25077;-79
2023/03/24 03:36:15;;;;;;;5.30;2.38;;;10.70;99.90;;;;;;5078593;28;25073;-79
2023/03/24 03:39:05;;;;;;;6.72;3.50;;;10.70;99.90;;;;;;5077590;28;25101;-79
2023/03/24 03:41:33;;;;;;;7.18;3.47;;;10.70;99.90;;;;;;5077727;28;25063;-79
2023/03/24 03:44:00;;;;;;;6.38;3.30;;;10.70;99.90;;;;;;5077472;28;25097;-79
2023/03/24 03:46:28;;;;;;;5.57;3.45;;;10.70;99.90;;;;;;5077614;28;25055;-79
2023/03/24 03:48:55;;;;;;;4.70;3.47;;;10.80;99.90;;;;;;5077344;28;25119;-79
2023/03/24 03:51:23;;;;;;;5.85;3.08;;;10.80;99.90;;;;;;5077493;28;25093;-79
2023/03/24 03:53:55;;;;;;;6.32;3.03;;;10.80;99.90;;;;;;5077562;28;25076;-79
2023/03/24 03:56:28;;;;;;;5.00;3.20;;;10.80;99.90;;;;;;5077222;28;25105;-79
2023/03/24 03:58:57;;;;;;;6.13;3.65;;;10.80;99.90;;;;;;5077436;28;25073;-79
2023/03/24 04:01:26;;;;;;;6.60;4.07;;;10.80;99.90;;;;;;5077326;28;25105;-79
2023/03/24 04:04:10;;;;;;;8.27;4.53;;;10.80;99.90;;;;;;5059490;28;25109;-80
2023/03/24 04:07:23;;;;;;;6.13;3.47;;;10.80;99.90;;;;;;5077369;28;25093;-79
2023/03/24 04:10:18;;;;;;;5.03;3.55;;;10.90;99.90;;;;;;5077248;28;25103;-80
2023/03/24 04:12:50;;;;;;;5.93;2.90;;;10.90;99.90;;;;;;5077469;28;25103;-79
2023/03/24 04:15:44;;;;;;;7.32;4.10;;;10.90;99.90;;;;;;5077158;28;25071;-79
2023/03/24 04:18:33;;;;;;;4.60;3.10;;;10.90;99.90;;;;;;5076823;28;25095;-79
2023/03/24 04:21:19;;;;;;;5.35;3.38;;;10.90;99.90;;;;;;5059115;28;25128;-79
2023/03/24 04:23:57;;;;;;;;;;;10.90;99.90;;;;;;5076608;28;25131;-79
2023/03/24 04:26:42;;;;;;;6.38;3.00;;;11.00;99.90;;;;;;5059003;28;24065;-79
2023/03/24 04:29:19;;;;;;;6.43;3.47;;;11.00;99.90;;;;;;5058955;28;25061;-79
2023/03/24 04:32:18;;;;;;;5.18;3.55;;;11.00;99.90;;;;;;5076764;28;25124;-79
2023/03/24 04:35:02;;;;;;;3.90;2.20;;;11.00;99.90;;;;;;5070651;28;25124;-79
2023/03/24 04:37:36;;;;;;;5.07;3.15;;;11.00;99.90;;;;;;5076607;28;25081;-79
2023/03/24 04:40:13;;;;;;;5.90;3.20;;;11.00;99.90;;;;;;5076533;28;25061;-79
2023/03/24 04:42:53;;;;;;;6.03;2.92;;;11.10;99.90;;;;;;5076731;28;25061;-79
2023/03/24 04:45:24;;;;;;;5.07;2.85;;;11.10;99.90;;;;;;5076817;28;25108;-79
2023/03/24 04:47:57;;;;;;;3.25;2.15;;;11.10;99.90;;;;;;5076474;28;25114;-79
2023/03/24 04:50:38;;;;;;;4.70;3.60;;;11.10;99.90;;;;;;5077140;28;25105;-79
2023/03/24 04:53:07;;;;;;;3.72;2.63;;;11.20;99.90;;;;;;5056303;28;25065;-79
2023/03/24 04:55:49;;;;;;;4.25;2.80;;;11.20;99.90;;;;;;5056315;28;25078;-78
2023/03/24 04:58:18;;;;;;;6.07;2.85;;;11.20;99.90;;;;;;5056510;28;25072;-79
2023/03/24 05:00:46;;;;;;;6.30;2.60;;;11.20;99.90;;;;;;5056382;28;25110;-79
2023/03/24 05:03:15;;;;;;;5.25;3.53;;;11.20;99.90;;;;;;5056070;28;25087;-78
2023/03/24 05:05:52;;;;;;;4.50;2.83;;;11.30;99.90;;;;;;5056427;28;25058;-78
2023/03/24 05:08:20;;;;;;;3.28;1.88;;;11.30;99.90;;;;;;5056116;28;25066;-78
2023/03/24 05:10:47;;;;;;;5.35;3.63;;;11.30;99.90;;;;;;5056112;28;25156;-78
2023/03/24 05:13:15;;;;;;;4.97;2.55;;;11.30;99.90;;;;;;5038665;28;25066;-79
2023/03/24 05:15:42;;;;;;;4.13;2.53;;;11.30;99.90;;;;;;5056069;28;25124;-78
2023/03/24 05:18:09;;;;;;;5.55;2.83;;;11.30;99.90;;;;;;5056092;28;25080;-78
2023/03/24 05:20:37;;;;;;;3.00;2.30;;;11.30;99.90;;;;;;5056047;28;25063;-78
2023/03/24 05:23:04;;;;;;;5.78;2.80;;;11.30;99.90;;;;;;5056224;28;25108;-79
2023/03/24 05:25:31;;;;;;;5.13;2.92;;;11.30;99.90;;;;;;5056179;28;25077;-78
2023/03/24 05:27:59;;;;;;;4.53;2.20;;;11.30;99.90;;;;;;5055902;28;25085;-78
2023/03/24 05:30:26;;;;;;;5.05;2.65;;;11.30;99.90;;;;;;5055973;28;25130;-79
2023/03/24 05:32:53;;;;;;;5.05;2.95;;;11.30;99.90;;;;;;5056178;28;25077;-79
2023/03/24 05:35:21;;;;;;;5.07;2.75;;;11.30;99.90;;;;;;5057116;28;25085;-79
2023/03/24 05:37:49;;;;;;;5.25;3.55;;;11.20;99.90;;;;;;5042173;28;25081;-78
2023/03/24 05:40:18;;;;;;;4.03;2.58;;;11.20;99.90;;;;;;5059820;28;25053;-79
2023/03/24 05:42:47;;;;;;;5.32;3.58;;;11.30;99.90;;;;;;5041932;28;25066;-78
2023/03/24 05:45:15;;;;;;;5.28;3.17;;;11.20;99.90;;;;;;5060148;28;25062;-79
2023/03/24 05:47:42;;;;;;;3.92;2.67;;;11.30;99.90;;;;;;5059655;28;25105;-79
2023/03/24 05:50:11;;;;;;;5.90;3.28;;;11.20;99.90;;;;;;5059639;28;25056;-79
2023/03/24 05:52:38;;;;;;;6.18;3.10;;;11.20;99.90;;;;;;5077018;28;25133;-79
2023/03/24 05:55:06;;;;;;;5.35;3.70;;;11.20;99.90;;;;;;5079792;28;25059;-79
2023/03/24 05:57:33;;;;;;;6.85;3.53;;;11.20;99.90;;;;;;5079833;28;25091;-79
2023/03/24 06:00:01;;;;;;;7.15;4.10;;;11.10;99.90;;;;;;5079753;28;25062;-79
2023/03/24 06:02:28;;;;;;;6.93;3.60;;;11.10;99.90;;;;;;5079377;28;25066;-79
2023/03/24 06:04:56;;;;;;;5.30;4.22;;;11.10;99.90;;;;;;5079366;28;25129;-79
2023/03/24 06:07:25;;;;;;;5.88;3.35;;;11.10;99.90;;;;;;5079498;28;25072;-83
2023/03/24 06:09:56;;;;;;;6.78;3.47;;;11.10;99.90;;;;;;5061543;28;25048;-80
2023/03/24 06:12:24;;;;;;;4.20;2.72;;;11.10;99.90;;;;;;5079539;28;25108;-80
2023/03/24 06:14:52;;;;;;;4.25;2.40;;;11.10;99.90;;;;;;5079196;28;25060;-79
2023/03/24 06:17:20;;;;;;;4.28;1.63;;;11.20;99.90;;;;;;5079633;28;25154;-79
2023/03/24 06:19:48;;;;;;;1.60;0.70;;;11.20;99.90;;;;;;5060995;28;25062;-79
2023/03/24 06:22:19;;;;;;;1.20;0.73;;;11.20;99.90;;;;;;5061195;28;25079;-79
2023/03/24 06:24:48;;;;;;;2.38;1.00;;;11.20;99.90;;;;;;5079324;28;25049;-79
2023/03/24 06:27:17;;;;;;;1.10;0.55;;;11.20;99.90;;;;;;5079191;28;25054;-79
2023/03/24 06:29:45;;;;;;;1.42;0.60;;;11.30;99.90;;;;;;5078925;28;25070;-80
2023/03/24 06:32:12;;;;;;;1.70;0.80;;;11.30;99.90;;;;;;5061076;28;25066;-78
2023/03/24 06:34:39;;;;;;;1.40;0.60;;;11.40;99.90;;;;;;5079098;28;25058;-76
2023/03/24 06:37:06;;;;;;;3.05;0.98;;;11.40;99.90;;;;;;5079397;28;25051;-76
2023/03/24 06:39:34;;;;;;;1.63;0.88;;;11.40;99.90;;;;;;5078753;28;25061;-78
2023/03/24 06:42:01;;;;;;;1.90;0.60;;;11.50;99.90;;;;;;5078820;28;25053;-77
2023/03/24 06:44:29;;;;;;;2.33;0.88;;;11.50;99.90;;;;;;5078998;28;25100;-76
2023/03/24 06:46:56;;;;;;;4.53;1.33;;;11.60;99.90;;;;;;5077861;28;25070;-75
2023/03/24 06:49:24;;;;;;;1.88;1.10;;;11.60;99.90;;;;;;5078506;28;25053;-78
2023/03/24 06:51:53;;;;;;;3.22;1.10;;;11.70;99.90;;;;;;5080388;28;25059;-79
2023/03/24 06:54:21;;;;;;;3.08;1.40;;;11.70;99.90;;;;;;5078513;28;25157;-78
2023/03/24 06:56:48;;;;;;;2.83;1.65;;;11.80;99.90;;;;;;5078730;28;25070;-76
2023/03/24 06:59:16;;;;;;;2.10;1.40;;;11.80;99.90;;;;;;5078689;28;25056;-81
2023/03/24 07:01:43;;;;;;;5.13;1.73;;;11.90;99.90;;;;;;5060708;28;25147;-79
2023/03/24 07:04:11;;;;;;;2.40;1.52;;;12.00;99.90;;;;;;5078595;28;25109;-80
2023/03/24 07:06:41;;;;;;;3.03;2.33;;;12.00;99.90;;;;;;5060533;28;25121;-80
2023/03/24 07:09:10;;;;;;;4.03;1.67;;;12.10;99.90;;;;;;5060581;28;25116;-85
2023/03/24 07:11:38;;;;;;;3.85;1.70;;;12.40;99.90;;;;;;5078343;28;25046;-78
2023/03/24 07:14:06;;;;;;;3.03;1.95;;;12.70;99.90;;;;;;5078653;28;25112;-74
2023/03/24 07:16:33;;;;;;;2.85;1.73;;;12.90;99.90;;;;;;5078117;28;25075;-78
2023/03/24 07:19:01;;;;;;;3.30;2.13;;;13.00;99.90;;;;;;5060309;28;25126;-73
2023/03/24 07:21:29;;;;;;;2.70;1.42;;;13.00;99.90;;;;;;5078088;28;25103;-74
2023/03/24 07:23:56;;;;;;;5.13;2.20;;;13.10;99.90;;;;;;5060065;28;25082;-74
2023/03/24 07:26:24;;;;;;;2.53;1.63;;;13.00;99.90;;;;;;5060145;28;25065;-74
2023/03/24 07:28:51;;;;;;;4.53;2.08;;;12.90;99.90;;;;;;5060199;28;25093;-75
2023/03/24 07:31:19;;;;;;;4.10;1.70;;;12.90;99.90;;;;;;5078516;28;25065;-73
2023/03/24 07:33:46;;;;;;;3.67;0.98;;;12.90;99.90;;;;;;5078250;28;25058;-73
2023/03/24 07:36:13;;;;;;;6.32;1.02;;;12.90;99.90;;;;;;5077950;28;25077;-73
2023/03/24 07:38:40;;;;;;;1.90;0.65;;;12.80;99.90;;;;;;5059949;28;25064;-74
2023/03/24 07:41:08;;;;;;;0.90;0.50;;;12.60;99.90;;;;;;5059722;28;25118;-74
2023/03/24 07:43:35;;;;;;;2.20;0.60;;;12.40;99.90;;;;;;5078082;28;25047;-74
2023/03/24 07:46:02;;;;;;;2.55;0.50;;;12.20;99.90;;;;;;5059745;28;25049;-70
2023/03/24 07:48:29;;;;;;;3.35;0.85;;;12.10;99.90;;;;;;5060184;28;25081;-71
2023/03/24 07:50:58;;;;;;;2.50;0.80;;;11.90;99.90;;;;;;5077257;28;25107;-71
2023/03/24 07:53:26;;;;;;;3.05;0.60;;;11.80;99.90;;;;;;5060104;28;25100;-71
2023/03/24 07:55:54;;;;;;;1.63;0.88;;;11.70;99.90;;;;;;5077413;28;25055;-70
2023/03/24 07:58:21;;;;;;;4.63;0.63;;;11.60;99.90;;;;;;5077552;28;25096;-70
2023/03/24 08:00:48;;;;;;;3.45;1.00;;;11.50;99.90;;;;;;5077752;28;25146;-70
2023/03/24 08:03:16;;;;;;;4.28;1.15;;;11.50;99.90;;;;;;5076968;28;25097;-70
2023/03/24 08:05:44;;;;;;;7.30;1.35;;;11.40;99.90;;;;;;5077218;28;25083;-70
2023/03/24 08:08:12;;;;;;;5.97;1.60;;;11.40;99.90;;;;;;5077605;28;25055;-71
2023/03/24 08:10:39;;;;;;;4.25;0.80;;;11.50;99.90;;;;;;5077571;28;25087;-71
2023/03/24 08:13:07;;;;;;;4.13;1.20;;;11.50;99.90;;;;;;5077204;28;25096;-72
2023/03/24 08:15:35;;;;;;;4.93;1.63;;;11.60;99.90;;;;;;5059272;28;25104;-73
2023/03/24 08:18:03;;;;;;;6.10;1.45;;;11.70;99.90;;;;;;5059067;28;25061;-73
2023/03/24 08:20:30;;;;;;;5.95;1.40;;;11.80;99.90;;;;;;5077015;28;25118;-73
2023/03/24 08:22:59;;;;;;;3.97;1.42;;;11.80;99.90;;;;;;5076936;28;25067;-74
2023/03/24 08:25:27;;;;;;;3.45;1.23;;;12.00;99.90;;;;;;5076768;28;25057;-74
2023/03/24 08:27:55;;;;;;;7.65;1.70;;;12.00;99.90;;;;;;5076668;28;25071;-71
2023/03/24 08:30:24;;;;;;;10.02;1.70;;;12.00;99.90;;;;;;5059039;28;25097;-72
2023/03/24 08:32:54;;;;;;;4.85;1.77;;;12.00;99.90;;;;;;5076555;28;25091;-72
2023/03/24 08:35:24;;;;;;;5.78;2.05;;;12.00;99.90;;;;;;5076593;28;25107;-72
2023/03/24 08:37:51;;;;;;;6.38;2.22;;;11.90;99.90;;;;;;5077120;28;25092;-70
2023/03/24 08:40:23;;;;;;;5.47;1.77;;;11.80;99.90;;;;;;5077244;28;25060;-70
2023/03/24 08:42:53;;;;;;;5.32;1.58;;;11.70;99.90;;;;;;5076310;28;25070;-70
2023/03/24 08:45:22;;;;;;;4.10;1.85;;;11.70;99.90;;;;;;5077320;28;25111;-70
2023/03/24 08:47:51;;;;;;;12.90;1.60;;;11.70;99.90;;;;;;5076745;28;25115;-72
2023/03/24 08:50:21;;;;;;;6.55;1.90;;;11.70;99.90;;;;;;5076418;28;25115;-70
2023/03/24 08:52:49;;;;;;;7.43;1.55;;;11.70;99.90;;;;;;5076203;28;25074;-71
2023/03/24 08:55:18;;;;;;;7.07;1.77;;;11.80;99.90;;;;;;5076330;28;25065;-72
2023/03/24 08:57:46;;;;;;;7.35;2.05;;;11.80;99.90;;;;;;5058508;28;25069;-71
2023/03/24 09:00:15;;;;;;;6.78;1.98;;;11.90;99.90;;;;;;5076275;28;25128;-71
2023/03/24 09:02:48;;;;;;;2.92;1.10;;;11.90;99.90;;;;;;5058341;28;25153;-71
2023/03/24 09:05:20;;;;;;;12.13;3.17;;;11.90;99.90;;;;;;5059096;28;25066;-71
2023/03/24 09:07:49;;;;;;;6.63;1.50;;;11.90;99.90;;;;;;5076264;28;25073;-71
2023/03/24 09:10:16;;;;;;;6.53;1.70;;;11.80;99.90;;;;;;5078499;28;25129;-71
2023/03/24 09:12:44;;;;;;;5.55;1.67;;;11.70;99.90;;;;;;5083430;28;25130;-71
2023/03/24 09:15:12;;;;;;;9.75;2.10;;;11.70;99.90;;;;;;5083078;28;25102;-71
2023/03/24 09:17:40;;;;;;;8.05;1.67;;;11.70;99.90;;;;;;5065051;28;25066;-71
2023/03/24 09:20:10;;;;;;;6.25;1.75;;;11.80;99.90;;;;;;5065027;28;25070;-71
2023/03/24 09:22:42;;;;;;;7.38;1.38;;;11.90;99.90;;;;;;5083266;28;25060;-71
2023/03/24 09:25:14;;;;;;;4.22;1.38;;;12.00;99.90;;;;;;5082958;28;25077;-71
2023/03/24 09:27:41;;;;;;;4.63;1.35;;;12.10;99.90;;;;;;5082661;28;25087;-70
2023/03/24 09:30:10;;;;;;;10.55;2.60;;;12.20;99.90;;;;;;5065214;28;25069;-71
2023/03/24 09:32:38;;;;;;;7.32;1.73;;;12.20;99.90;;;;;;5082645;28;25077;-71
2023/03/24 09:35:07;;;;;;;7.93;1.48;;;12.30;99.90;;;;;;5082687;28;25068;-71
2023/03/24 09:37:35;;;;;;;6.78;1.58;;;12.40;99.90;;;;;;5082935;28;25064;-71
2023/03/24 09:40:04;;;;;;;6.85;2.15;;;12.40;99.90;;;;;;5064799;28;25056;-71
2023/03/24 09:42:39;;;;;;;4.93;2.17;;;12.50;99.90;;;;;;5082823;28;25106;-71
2023/03/24 09:45:21;;;;;;;2.97;1.30;;;12.60;99.90;;;;;;5082741;28;25055;-71
2023/03/24 09:48:19;;;;;;;10.65;1.67;;;12.80;99.90;;;;;;5082539;28;25073;-71
2023/03/24 09:50:57;;;;;;;5.40;1.73;;;13.00;99.90;;;;;;5082340;28;25123;-72
2023/03/24 09:53:59;;;;;;;7.63;1.83;;;13.20;99.90;;;;;;5082395;28;25084;-71
2023/03/24 09:56:30;;;;;;;4.63;1.90;;;13.40;99.90;;;;;;5082958;28;25125;-70
2023/03/24 09:59:07;;;;;;;7.03;1.48;;;13.40;99.90;;;;;;5083019;28;25079;-70
2023/03/24 10:01:35;;;;;;;6.32;1.63;;;13.30;99.90;;;;;;5082412;28;25058;-71
2023/03/24 10:04:03;;;;;;;5.72;1.45;;;13.20;99.90;;;;;;5064622;28;25054;-71
2023/03/24 10:06:34;;;;;;;6.10;1.77;;;13.30;99.90;;;;;;5082561;28;25054;-71
2023/03/24 10:09:26;;;;;;;9.20;3.35;;;13.30;99.90;;;;;;5082874;28;25102;-70
2023/03/24 10:11:59;;;;;;;4.97;1.60;;;13.30;99.90;;;;;;5082650;28;25079;-71
2023/03/24 10:14:51;;;;;;;6.15;2.38;;;13.40;99.90;;;;;;5082846;28;25082;-71
2023/03/24 10:17:43;;;;;;;5.32;1.95;;;13.40;99.90;;;;;;5082609;28;25075;-72
2023/03/24 10:20:47;;;;;;;5.50;1.88;;;13.50;99.90;;;;;;5064422;28;25070;-71
2023/03/24 10:23:36;;;;;;;8.38;1.95;;;13.60;99.90;;;;;;5061198;28;25050;-71
2023/03/24 10:26:15;;;;;;;9.52;2.90;;;13.70;99.90;;;;;;5061259;28;25111;-71
2023/03/24 10:28:56;;;;;;;7.35;2.00;;;13.80;99.90;;;;;;5078761;28;25104;-71
2023/03/24 10:31:34;;;;;;;5.65;2.08;;;13.90;99.90;;;;;;5079693;28;25108;-71
2023/03/24 10:34:02;;;;;;;7.47;2.22;;;13.90;99.90;;;;;;5078882;28;25061;-71
2023/03/24 10:36:29;;;;;;;6.53;2.08;;;13.90;99.90;;;;;;5061136;28;25101;-71
2023/03/24 10:38:57;;;;;;;7.75;2.47;;;14.00;99.90;;;;;;5079372;28;25071;-72
2023/03/24 10:41:27;;;;;;;8.85;3.10;;;14.00;99.90;;;;;;5079155;28;25057;-73
2023/03/24 10:43:58;;;;;;;5.00;2.30;;;14.00;99.90;;;;;;5078694;28;25125;-71
2023/03/24 10:46:27;;;;;;;5.97;2.05;;;13.90;99.90;;;;;;5078971;28;25080;-71
2023/03/24 10:49:18;;;;;;;4.82;2.03;;;13.80;99.90;;;;;;5078598;28;25067;-71
2023/03/24 10:52:02;;;;;;;9.93;2.20;;;13.70;99.90;;;;;;5078830;28;25083;-72
2023/03/24 10:54:31;;;;;;;5.65;2.42;;;13.60;99.90;;;;;;5078259;28;25126;-71
2023/03/24 10:57:05;;;;;;;5.80;2.63;;;13.70;99.90;;;;;;5078796;28;25113;-71
2023/03/24 10:59:58;;;;;;;4.55;2.45;;;13.80;99.90;;;;;;5078321;28;25080;-72
2023/03/24 11:02:31;;;;;;;6.68;2.50;;;13.90;99.90;;;;;;5078368;28;25068;-78
2023/03/24 11:05:10;;;;;;;8.30;3.25;;;13.70;99.90;;;;;;5078316;28;25070;-74
2023/03/24 11:07:46;;;;;;;9.07;2.50;;;13.50;99.90;;;;;;5078539;28;25157;-78
2023/03/24 11:10:19;;;;;;;5.78;2.97;;;13.60;99.90;;;;;;5060689;28;25134;-80
2023/03/24 11:13:02;;;;;;;9.80;3.10;;;13.70;99.90;;;;;;5078478;28;25079;-78
2023/03/24 11:15:32;;;;;;;6.63;2.70;;;13.90;99.90;;;;;;5078174;28;25074;-79
2023/03/24 11:18:10;;;;;;;9.05;2.42;;;13.90;99.90;;;;;;5060224;28;25057;-74
2023/03/24 11:20:40;;;;;;;8.80;2.28;;;13.90;99.90;;;;;;5078741;28;25068;-78
2023/03/24 11:23:27;;;;;;;7.78;2.65;;;13.80;99.90;;;;;;5077836;28;25069;-78
2023/03/24 11:26:15;;;;;;;4.50;1.80;;;13.70;99.90;;;;;;5077941;28;25097;-74
2023/03/24 11:28:57;;;;;;;10.15;2.67;;;13.50;99.90;;;;;;5060049;28;25117;-75
2023/03/24 11:31:37;;;;;;;9.98;2.33;;;13.40;99.90;;;;;;5078265;28;25115;-75
2023/03/24 11:34:18;;;;;;;11.00;2.25;;;13.30;99.90;;;;;;5059405;28;25105;-73
2023/03/24 11:36:57;;;;;;;11.20;2.83;;;13.20;99.90;;;;;;5077666;28;25056;-73
2023/03/24 11:39:26;;;;;;;8.55;2.67;;;13.20;99.90;;;;;;5077875;28;25131;-74
2023/03/24 11:42:02;;;;;;;10.02;2.35;;;13.20;99.90;;;;;;5077488;28;25102;-74
2023/03/24 11:44:31;;;;;;;;;;;13.20;99.90;;;;;;5078211;28;25101;-74
2023/03/24 11:47:30;;;;;;;9.57;2.25;;;13.10;99.90;;;;;;5077923;28;24071;-74
2023/03/24 11:50:11;;;;;;;6.22;2.33;;;13.10;99.90;;;;;;5056837;28;25078;-74
2023/03/24 11:52:58;;;;;;;9.70;2.38;;;13.00;99.90;;;;;;5077268;28;25069;-74
2023/03/24 11:55:29;;;;;;;9.60;2.60;;;12.90;99.90;;;;;;5077428;28;25072;-74
2023/03/24 11:58:13;;;;;;;8.13;2.75;;;12.90;99.90;;;;;;5077514;28;25079;-75
2023/03/24 12:00:56;;;;;;;6.38;2.13;;;13.00;99.90;;;;;;5077578;28;25138;-74
2023/03/24 12:03:38;;;;;;;7.13;2.28;;;13.10;99.90;;;;;;5077418;28;25054;-75
2023/03/24 12:06:28;;;;;;;7.88;3.13;;;13.20;99.90;;;;;;5077563;28;25089;-74
2023/03/24 12:09:22;;;;;;;4.90;2.03;;;13.20;99.90;;;;;;5077071;28;25058;-75
2023/03/24 12:12:17;;;;;;;5.53;2.33;;;13.10;99.90;;;;;;5077390;28;25069;-74
2023/03/24 12:14:57;;;;;;;11.93;2.38;;;13.10;99.90;;;;;;5076959;28;25058;-72
2023/03/24 12:17:36;;;;;;;7.50;2.20;;;13.20;99.90;;;;;;5077589;28;25142;-73
2023/03/24 12:20:36;;;;;;;5.72;2.05;;;13.40;99.90;;;;;;5076767;28;25143;-73
2023/03/24 12:23:27;;;;;;;14.18;3.00;;;13.60;99.90;;;;;;5076974;28;25127;-73
2023/03/24 12:26:16;;;;;;;11.40;2.75;;;13.60;99.90;;;;;;5076956;28;25061;-73
2023/03/24 12:28:43;;;;;;;8.20;2.38;;;13.60;99.90;;;;;;5076731;28;25117;-73
2023/03/24 12:31:17;;;;;;;9.18;2.33;;;13.60;99.90;;;;;;5077238;28;25089;-73
2023/03/24 12:34:12;;;;;;;11.73;2.17;;;13.70;99.90;;;;;;5077170;28;25092;-73
2023/03/24 12:37:16;;;;;;;8.45;1.80;;;13.70;99.90;;;;;;5077066;28;25074;-73
2023/03/24 12:40:12;;;;;;;7.10;1.70;;;13.80;99.90;;;;;;5058756;28;25062;-74
2023/03/24 12:42:44;;;;;;;8.27;2.45;;;14.00;99.90;;;;;;5076409;28;25146;-76
2023/03/24 12:45:36;;;;;;;5.47;1.85;;;14.40;99.90;;;;;;5076147;28;25059;-74
2023/03/24 12:48:25;;;;;;;3.20;1.67;;;14.70;99.90;;;;;;5076490;28;25058;-73
2023/03/24 12:51:21;;;;;;;5.38;1.92;;;14.90;99.90;;;;;;5076509;28;25062;-76
2023/03/24 12:53:59;;;;;;;7.57;1.80;;;15.00;99.90;;;;;;5076762;28;25106;-74
2023/03/24 12:56:36;;;;;;;5.15;1.73;;;15.00;99.90;;;;;;5076369;28;25069;-74
2023/03/24 12:59:14;;;;;;;10.45;1.90;;;14.90;99.90;;;;;;5076391;28;25093;-74
2023/03/24 13:01:52;;;;;;;7.05;1.83;;;14.70;99.90;;;;;;5076302;28;25075;-74
2023/03/24 13:04:29;;;;;;;5.88;1.67;;;14.70;99.90;;;;;;5058534;28;25054;-74
2023/03/24 13:07:10;;;;;;;5.82;1.25;;;14.70;99.90;;;;;;5076835;28;25073;-74
2023/03/24 13:10:05;;;;;;;5.65;2.17;;;14.70;99.90;;;;;;5076126;28;25095;-73
2023/03/24 13:12:40;;;;;;;8.52;2.03;;;15.00;99.90;;;;;;5076287;28;25070;-76
2023/03/24 13:15:25;;;;;;;7.03;1.88;;;15.20;99.90;;;;;;5076214;28;25072;-73
2023/03/24 13:18:10;;;;;;;6.20;1.58;;;15.20;99.90;;;;;;5076402;28;25056;-73
2023/03/24 13:20:55;;;;;;;6.60;1.88;;;15.20;99.90;;;;;;5076888;28;25074;-73
2023/03/24 13:23:32;;;;;;;4.43;1.55;;;15.30;99.90;;;;;;5058230;28;25118;-73
2023/03/24 13:26:32;;;;;;;7.30;1.90;;;15.60;99.90;;;;;;5076677;28;25062;-73
2023/03/24 13:29:39;;;;;;;8.55;1.70;;;15.80;99.90;;;;;;5076076;28;25036;-73